OIAI  Shahid Asyaee Airport

Add Bookmark

Iran

Status
Operational
Latitude Longitude
32° 0' 8" N 49° 16' 13" E
32.002399 49.270401
Local (DST + 5) UTC (GMT + 4)
Oct 22, 2014 11:25 Oct 22, 2014 07:55
Sunrise-Sunset Local UTC
Begin Civil Twilight 05:55 02:25
Sunrise 06:20 02:50
Sunset 05:34 14:04
End Civil Twilight 05:59 14:29

Current Weather

METAR Observed VFR
OIAI 220700Z 29002KT CAVOK 22/09 Q1019 Wed, Oct 22, 2014 @ 07:00 UTC
(55 Minutes ago)
Visual Flight Rules
Wind Visibility Clouds Conditions
290° at 2 knots (4 kph) 10 km or more
  • Clear skies
  • No significant weather
Temperatures Readings Precipitation
Current Temp 22°C (72°F)
Dewpoint 9°C (48°F)
Humidity 44%
Altimeter 30.09"Hg
Sea Level Pressure 1019mb
Field Elevation 1220.47'
None Recorded

Additional weather within a 92.6km radius of OIAI

Map ICAO Location
OIAW 88.2km S (213°)

24 Hour Weather History

Loading
-

24 Hour Weather Graphs

Loading
-

CheckWX.com is intended as a tool to help pilots better visualize weather data. It is not intended as a substitute for an official weather briefing obtained from a Flight Service Station. CheckWX.com does not meet the FAA requirements for an official pre-flight weather briefing. Therefore, it's important that pilots still call and obtain an official FSS pre-flight weather briefing.